createdAt,value
2023-04-15T00:01:19.495Z,7.22
2023-04-15T00:03:48.752Z,7.93
2023-04-15T00:06:16.997Z,8.15
2023-04-15T00:08:45.395Z,8.23
2023-04-15T00:11:13.749Z,7.55
2023-04-15T00:13:41.958Z,7.75
2023-04-15T00:16:10.790Z,8.32
2023-04-15T00:18:39.179Z,8.82
2023-04-15T00:21:07.255Z,8.93
2023-04-15T00:23:37.165Z,8.63
2023-04-15T00:26:05.225Z,7.82
2023-04-15T00:28:33.670Z,8.23
2023-04-15T00:31:01.801Z,8.27
2023-04-15T00:33:29.814Z,7.93
2023-04-15T00:35:57.684Z,7.38
2023-04-15T00:38:25.733Z,8.82
2023-04-15T00:40:54.258Z,7.82
2023-04-15T00:43:22.148Z,8.88
2023-04-15T00:45:52.094Z,7.43
2023-04-15T00:48:20.548Z,8.40
2023-04-15T00:50:49.636Z,7.82
2023-04-15T00:53:17.566Z,8.00
2023-04-15T00:55:46.396Z,7.28
2023-04-15T00:58:15.197Z,7.53
2023-04-15T01:00:44.224Z,7.38
2023-04-15T01:03:12.375Z,7.22
2023-04-15T01:05:41.296Z,7.22
2023-04-15T01:08:09.826Z,6.85
2023-04-15T01:10:38.402Z,7.25
2023-04-15T01:13:06.893Z,6.95
2023-04-15T01:15:36.700Z,6.93
2023-04-15T01:18:04.838Z,7.53
2023-04-15T01:20:34.572Z,6.82
2023-04-15T01:23:02.945Z,7.30
2023-04-15T01:25:35.028Z,7.03
2023-04-15T01:28:06.125Z,7.35
2023-04-15T01:30:38.018Z,7.47
2023-04-15T01:33:06.633Z,7.35
2023-04-15T01:35:37.203Z,7.47
2023-04-15T01:38:07.817Z,6.65
2023-04-15T01:40:36.318Z,7.03
2023-04-15T01:43:04.317Z,7.13
2023-04-15T01:45:32.490Z,7.20
2023-04-15T01:48:00.885Z,7.22
2023-04-15T01:50:28.994Z,7.05
2023-04-15T01:52:57.177Z,7.50
2023-04-15T01:55:25.568Z,7.10
2023-04-15T01:57:53.940Z,7.25
2023-04-15T02:00:23.081Z,6.72
2023-04-15T02:02:51.431Z,7.25
2023-04-15T02:05:19.536Z,7.25
2023-04-15T02:07:49.465Z,6.70
2023-04-15T02:10:17.901Z,7.10
2023-04-15T02:12:46.601Z,7.05
2023-04-15T02:15:14.971Z,7.22
2023-04-15T02:17:45.992Z,6.78
2023-04-15T02:20:17.027Z,7.10
2023-04-15T02:22:44.986Z,6.60
2023-04-15T02:25:13.058Z,6.68
2023-04-15T02:27:41.115Z,7.03
2023-04-15T02:30:09.632Z,6.20
2023-04-15T02:32:38.483Z,6.32
2023-04-15T02:35:07.966Z,6.78
2023-04-15T02:37:44.034Z,6.93
2023-04-15T02:40:13.308Z,6.80
2023-04-15T02:42:42.640Z,6.68
2023-04-15T02:45:13.266Z,6.68
2023-04-15T02:47:43.436Z,6.75
2023-04-15T02:50:13.275Z,6.72
2023-04-15T02:52:43.510Z,6.80
2023-04-15T02:55:12.636Z,6.90
2023-04-15T02:57:41.691Z,6.55
2023-04-15T03:00:12.091Z,6.53
2023-04-15T03:02:43.580Z,6.85
2023-04-15T03:05:15.481Z,7.03
2023-04-15T03:07:49.383Z,7.30
2023-04-15T03:10:17.489Z,6.80
2023-04-15T03:12:47.728Z,6.93
2023-04-15T03:15:19.349Z,7.05
2023-04-15T03:17:50.735Z,6.35
2023-04-15T03:20:18.817Z,7.75
2023-04-15T03:22:46.653Z,7.32
2023-04-15T03:25:14.598Z,6.90
2023-04-15T03:27:42.665Z,7.10
2023-04-15T03:30:11.137Z,7.03
2023-04-15T03:32:40.319Z,6.75
2023-04-15T03:35:09.774Z,6.70
2023-04-15T03:37:37.823Z,7.20
2023-04-15T03:40:06.218Z,6.35
2023-04-15T03:42:34.261Z,7.13
2023-04-15T03:45:02.328Z,6.47
2023-04-15T03:47:30.414Z,6.85
2023-04-15T03:49:58.473Z,7.47
2023-04-15T03:52:26.405Z,7.15
2023-04-15T03:54:57.200Z,6.60
2023-04-15T03:57:25.666Z,6.45
2023-04-15T03:59:53.548Z,7.22
2023-04-15T04:02:22.965Z,7.30
2023-04-15T04:04:51.211Z,7.18
2023-04-15T04:07:19.279Z,7.13
2023-04-15T04:09:47.529Z,6.82
2023-04-15T04:12:15.620Z,7.43
2023-04-15T04:14:43.613Z,7.20
2023-04-15T04:17:11.790Z,7.03
2023-04-15T04:19:39.759Z,7.88
2023-04-15T04:22:07.598Z,7.18
2023-04-15T04:24:35.622Z,7.18
2023-04-15T04:27:03.667Z,6.88
2023-04-15T04:29:32.735Z,7.40
2023-04-15T04:32:01.192Z,7.38
2023-04-15T04:34:29.246Z,7.55
2023-04-15T04:36:57.202Z,7.55
2023-04-15T04:39:25.336Z,7.60
2023-04-15T04:41:53.413Z,7.70
2023-04-15T04:44:22.236Z,7.82
2023-04-15T04:46:50.350Z,7.68
2023-04-15T04:49:18.345Z,7.85
2023-04-15T04:51:47.124Z,7.35
2023-04-15T04:54:15.067Z,7.47
2023-04-15T04:56:43.005Z,8.48
2023-04-15T04:59:10.954Z,8.32
2023-04-15T05:01:38.938Z,8.30
2023-04-15T05:04:07.912Z,8.55
2023-04-15T05:06:36.840Z,8.30
2023-04-15T05:09:04.891Z,8.20
2023-04-15T05:11:33.476Z,8.15
2023-04-15T05:14:02.556Z,9.05
2023-04-15T05:16:30.688Z,8.52
2023-04-15T05:18:58.996Z,8.50
2023-04-15T05:21:27.725Z,8.20
2023-04-15T05:23:55.681Z,8.32
2023-04-15T05:26:24.368Z,8.60
2023-04-15T05:28:52.309Z,7.90
2023-04-15T05:31:20.720Z,7.80
2023-04-15T05:33:48.704Z,7.25
2023-04-15T05:36:16.751Z,7.13
2023-04-15T05:38:44.712Z,7.32
2023-04-15T05:41:12.866Z,7.00
2023-04-15T05:43:43.596Z,7.50
2023-04-15T05:46:11.781Z,6.68
2023-04-15T05:48:39.734Z,6.97
2023-04-15T05:51:07.845Z,7.15
2023-04-15T05:53:35.973Z,6.72
2023-04-15T05:56:04.455Z,6.93
2023-04-15T05:58:32.463Z,7.03
2023-04-15T06:01:03.966Z,7.85
2023-04-15T06:03:32.663Z,7.35
2023-04-15T06:06:01.603Z,7.10
2023-04-15T06:08:29.884Z,7.25
2023-04-15T06:10:59.610Z,7.10
2023-04-15T06:13:27.601Z,7.03
2023-04-15T06:15:55.600Z,6.90
2023-04-15T06:18:23.779Z,6.65
2023-04-15T06:20:52.141Z,6.78
2023-04-15T06:23:20.352Z,6.88
2023-04-15T06:25:50.931Z,7.20
2023-04-15T06:28:18.811Z,6.80
2023-04-15T06:30:46.845Z,7.07
2023-04-15T06:33:15.213Z,7.55
2023-04-15T06:35:43.168Z,7.03
2023-04-15T06:38:11.596Z,7.38
2023-04-15T06:40:39.797Z,7.07
2023-04-15T06:43:08.149Z,7.88
2023-04-15T06:45:36.456Z,7.97
2023-04-15T06:48:04.743Z,7.60
2023-04-15T06:50:32.916Z,7.72
2023-04-15T06:53:01.009Z,8.45
2023-04-15T06:55:28.955Z,8.52
2023-04-15T06:57:57.661Z,8.93
2023-04-15T07:00:25.653Z,8.45
2023-04-15T07:02:53.743Z,8.38
2023-04-15T07:05:21.739Z,8.80
2023-04-15T07:07:50.632Z,8.55
2023-04-15T07:10:19.719Z,8.57
2023-04-15T07:12:49.732Z,9.07
2023-04-15T07:15:21.462Z,10.02
2023-04-15T07:17:50.686Z,7.53
2023-04-15T07:20:19.559Z,8.07
2023-04-15T07:22:47.924Z,9.02
2023-04-15T07:25:19.038Z,9.77
2023-04-15T07:30:30.711Z,8.93
2023-04-15T07:32:59.583Z,7.38
2023-04-15T07:35:27.801Z,7.82
2023-04-15T07:37:56.346Z,8.40
2023-04-15T07:40:24.584Z,8.77
2023-04-15T07:42:57.812Z,8.18
2023-04-15T07:45:26.655Z,6.72
2023-04-15T07:47:57.102Z,6.50
2023-04-15T07:50:25.413Z,6.72
2023-04-15T07:52:53.936Z,5.13
2023-04-15T07:55:23.668Z,6.57
2023-04-15T07:57:51.865Z,6.95
2023-04-15T08:00:20.547Z,5.38
2023-04-15T08:02:55.938Z,6.10
2023-04-15T08:05:37.610Z,4.80
2023-04-15T08:08:06.239Z,5.40
2023-04-15T08:10:34.443Z,5.15
2023-04-15T08:13:02.606Z,5.20
2023-04-15T08:15:41.753Z,5.20
2023-04-15T08:21:11.181Z,4.85
2023-04-15T08:27:14.492Z,5.05
2023-04-15T08:30:20.890Z,4.78
2023-04-15T08:33:12.049Z,5.18
2023-04-15T08:35:42.378Z,5.05
2023-04-15T08:38:11.743Z,4.50
2023-04-15T08:40:49.672Z,4.95
2023-04-15T08:43:50.730Z,4.43
2023-04-15T08:46:27.362Z,4.07
2023-04-15T08:49:09.020Z,4.10
2023-04-15T08:51:41.397Z,4.63
2023-04-15T08:54:15.316Z,4.30
2023-04-15T08:56:44.776Z,4.83
2023-04-15T08:59:18.973Z,5.50
2023-04-15T09:01:56.139Z,4.22
2023-04-15T09:04:24.710Z,4.30
2023-04-15T09:06:55.990Z,3.78
2023-04-15T09:09:24.445Z,4.35
2023-04-15T09:11:54.053Z,4.32
2023-04-15T09:14:23.019Z,4.00
2023-04-15T09:17:07.153Z,5.40
2023-04-15T09:19:39.809Z,4.88
2023-04-15T09:22:10.984Z,3.65
2023-04-15T09:24:42.359Z,4.78
2023-04-15T09:27:11.559Z,5.47
2023-04-15T09:29:41.409Z,4.60
2023-04-15T09:32:14.753Z,4.82
2023-04-15T09:34:46.117Z,3.55
2023-04-15T09:37:29.082Z,3.47
2023-04-15T09:40:01.665Z,3.80
2023-04-15T09:45:12.854Z,3.53
2023-04-15T09:47:41.726Z,4.30
2023-04-15T09:50:18.684Z,4.00
2023-04-15T09:58:49.934Z,3.58
2023-04-15T10:01:20.218Z,3.35
2023-04-15T10:03:49.159Z,3.60
2023-04-15T10:06:18.688Z,3.72
2023-04-15T10:08:49.936Z,3.70
2023-04-15T10:11:24.070Z,2.97
2023-04-15T10:13:53.366Z,3.17
2023-04-15T10:16:24.112Z,2.88
2023-04-15T10:19:04.872Z,3.53
2023-04-15T10:21:39.732Z,3.08
2023-04-15T10:24:10.670Z,3.72
2023-04-15T10:26:39.653Z,2.67
2023-04-15T10:29:08.492Z,2.45
2023-04-15T10:31:38.709Z,2.38
2023-04-15T10:34:07.601Z,2.55
2023-04-15T10:36:35.674Z,2.28
2023-04-15T10:39:23.729Z,2.60
2023-04-15T10:42:11.337Z,2.38
2023-04-15T10:44:41.957Z,2.90
2023-04-15T10:47:20.446Z,2.30
2023-04-15T10:49:50.556Z,2.50
2023-04-15T10:52:23.464Z,2.67
2023-04-15T10:55:03.510Z,2.10
2023-04-15T10:57:48.256Z,2.38
2023-04-15T11:00:21.760Z,2.17
2023-04-15T11:03:00.211Z,2.38
2023-04-15T11:06:02.358Z,2.00
2023-04-15T11:09:05.803Z,1.98
2023-04-15T11:12:12.589Z,1.90
2023-04-15T11:14:45.305Z,2.15
2023-04-15T11:17:14.190Z,1.73
2023-04-15T11:19:42.744Z,2.13
2023-04-15T11:22:14.424Z,2.13
2023-04-15T11:24:52.790Z,1.95
2023-04-15T11:27:26.800Z,2.17
2023-04-15T11:29:58.815Z,2.10
2023-04-15T11:32:29.714Z,2.15
2023-04-15T11:34:59.548Z,2.03
2023-04-15T11:40:16.098Z,2.20
2023-04-15T11:42:50.571Z,1.60
2023-04-15T11:45:19.381Z,2.20
2023-04-15T11:47:54.635Z,1.92
2023-04-15T11:50:31.343Z,1.95
2023-04-15T11:53:08.587Z,1.90
2023-04-15T11:55:51.112Z,2.00
2023-04-15T11:58:24.351Z,1.45
2023-04-15T12:00:59.551Z,1.50
2023-04-15T12:06:23.725Z,1.52
2023-04-15T12:09:01.559Z,1.70
2023-04-15T12:11:38.515Z,1.77
2023-04-15T12:14:13.351Z,1.90
2023-04-15T12:16:51.767Z,1.85
2023-04-15T12:19:37.826Z,1.48
2023-04-15T12:22:11.971Z,1.50
2023-04-15T12:24:41.222Z,1.70
2023-04-15T12:27:11.906Z,1.77
2023-04-15T12:29:42.106Z,1.80
2023-04-15T12:32:21.408Z,1.65
2023-04-15T12:34:55.134Z,1.42
2023-04-15T12:37:26.436Z,1.70
2023-04-15T12:39:59.657Z,1.00
2023-04-15T12:42:37.460Z,1.50
2023-04-15T12:50:34.385Z,1.42
2023-04-15T12:53:03.869Z,1.40
2023-04-15T12:55:35.040Z,1.38
2023-04-15T12:58:09.943Z,1.30
2023-04-15T13:00:38.885Z,1.25
2023-04-15T13:03:07.492Z,1.48
2023-04-15T13:05:37.295Z,1.45
2023-04-15T13:08:05.989Z,1.13
2023-04-15T13:10:36.718Z,1.20
2023-04-15T13:18:35.845Z,1.30
2023-04-15T13:21:05.334Z,1.27
2023-04-15T13:23:33.709Z,1.20
2023-04-15T13:26:01.702Z,1.60
2023-04-15T13:28:30.099Z,1.40
2023-04-15T13:30:59.047Z,1.38
2023-04-15T13:33:27.943Z,1.35
2023-04-15T13:35:59.471Z,1.48
2023-04-15T13:38:27.927Z,1.23
2023-04-15T13:40:56.691Z,1.48
2023-04-15T13:43:27.834Z,1.50
2023-04-15T13:45:56.489Z,1.50
2023-04-15T13:48:25.301Z,1.42
2023-04-15T13:50:53.693Z,1.67
2023-04-15T13:53:33.887Z,1.58
2023-04-15T13:56:08.520Z,1.48
2023-04-15T13:58:38.300Z,1.90
2023-04-15T14:01:07.429Z,2.15
2023-04-15T14:03:36.973Z,1.75
2023-04-15T14:06:06.444Z,1.77
2023-04-15T14:08:34.698Z,1.80
2023-04-15T14:11:06.715Z,1.98
2023-04-15T14:13:34.721Z,2.00
2023-04-15T14:16:03.288Z,1.80
2023-04-15T14:18:31.913Z,2.65
2023-04-15T14:21:00.412Z,2.38
2023-04-15T14:23:29.078Z,1.80
2023-04-15T14:25:57.803Z,2.58
2023-04-15T14:28:26.654Z,1.67
2023-04-15T14:30:55.617Z,1.50
2023-04-15T14:33:24.088Z,1.67
2023-04-15T14:35:52.569Z,1.60
2023-04-15T14:38:23.124Z,1.92
2023-04-15T14:40:51.163Z,2.30
2023-04-15T14:43:19.117Z,2.20
2023-04-15T14:45:47.807Z,2.33
2023-04-15T14:48:16.147Z,2.13
2023-04-15T14:50:45.575Z,2.10
2023-04-15T14:53:14.049Z,1.70
2023-04-15T14:55:42.157Z,1.50
2023-04-15T14:58:10.279Z,1.80
2023-04-15T15:00:44.596Z,1.92
2023-04-15T15:03:13.589Z,2.15
2023-04-15T15:05:46.782Z,1.90
2023-04-15T15:08:15.332Z,2.05
2023-04-15T15:10:49.115Z,1.70
2023-04-15T15:13:19.174Z,1.88
2023-04-15T15:15:49.940Z,2.03
2023-04-15T15:18:21.949Z,1.73
2023-04-15T15:20:50.110Z,1.45
2023-04-15T15:23:18.365Z,1.65
2023-04-15T15:25:47.776Z,2.10
2023-04-15T15:28:15.862Z,1.40
2023-04-15T15:30:43.840Z,1.90
2023-04-15T15:33:14.920Z,1.75
2023-04-15T15:35:42.917Z,1.98
2023-04-15T15:38:12.830Z,1.85
2023-04-15T15:40:40.778Z,1.55
2023-04-15T15:43:08.914Z,1.30
2023-04-15T15:45:37.377Z,1.30
2023-04-15T15:48:06.308Z,1.38
2023-04-15T15:50:35.512Z,1.02
2023-04-15T15:53:03.975Z,1.58
2023-04-15T15:55:32.215Z,1.67
2023-04-15T15:58:00.405Z,1.67
2023-04-15T16:00:28.684Z,1.33
2023-04-15T16:05:29.930Z,1.65
2023-04-15T16:07:59.514Z,2.00
2023-04-15T16:10:28.168Z,1.33
2023-04-15T16:12:56.578Z,1.23
2023-04-15T16:15:26.452Z,1.20
2023-04-15T16:17:54.341Z,1.45
2023-04-15T16:20:22.453Z,1.48
2023-04-15T16:22:51.362Z,1.20
2023-04-15T16:25:19.672Z,1.75
2023-04-15T16:28:00.822Z,1.58
2023-04-15T16:30:31.523Z,1.58
2023-04-15T16:32:59.629Z,1.30
2023-04-15T16:35:28.348Z,1.20
2023-04-15T16:37:56.419Z,1.95
2023-04-15T16:40:24.939Z,1.17
2023-04-15T16:42:53.195Z,1.30
2023-04-15T16:45:21.433Z,1.90
2023-04-15T16:47:49.535Z,1.35
2023-04-15T16:50:17.692Z,1.45
2023-04-15T16:52:45.803Z,1.20
2023-04-15T16:55:14.165Z,1.30
2023-04-15T16:58:02.370Z,1.42
2023-04-15T17:00:32.968Z,1.63
2023-04-15T17:03:01.786Z,1.55
2023-04-15T17:05:33.410Z,1.27
2023-04-15T17:08:01.698Z,1.58
2023-04-15T17:10:30.750Z,1.25
2023-04-15T17:12:59.706Z,1.23
2023-04-15T17:15:27.939Z,1.55
2023-04-15T17:17:56.100Z,1.73
2023-04-15T17:20:24.480Z,1.70
2023-04-15T17:22:52.829Z,1.52
2023-04-15T17:25:26.915Z,1.88
2023-04-15T17:27:59.262Z,1.67
2023-04-15T17:30:28.394Z,1.30
2023-04-15T17:32:57.727Z,2.05
2023-04-15T17:35:30.287Z,1.40
2023-04-15T17:40:30.385Z,1.60
2023-04-15T17:42:59.504Z,2.00
2023-04-15T17:45:29.867Z,1.33
2023-04-15T17:48:04.535Z,1.60
2023-04-15T17:50:33.580Z,1.70
2023-04-15T17:53:03.428Z,2.85
2023-04-15T17:55:34.140Z,2.90
2023-04-15T17:58:04.058Z,2.90
2023-04-15T18:03:17.053Z,2.78
2023-04-15T18:05:45.373Z,1.60
2023-04-15T18:08:14.011Z,2.13
2023-04-15T18:10:42.101Z,1.90
2023-04-15T18:13:10.586Z,1.42
2023-04-15T18:15:38.844Z,1.70
2023-04-15T18:18:07.598Z,2.05
2023-04-15T18:20:37.451Z,1.90
2023-04-15T18:23:06.138Z,3.15
2023-04-15T18:25:34.531Z,2.25
2023-04-15T18:28:04.983Z,2.72
2023-04-15T18:30:33.053Z,5.03
2023-04-15T18:33:01.538Z,2.75
2023-04-15T18:35:30.123Z,2.85
2023-04-15T18:37:59.227Z,1.85
2023-04-15T18:40:27.374Z,1.98
2023-04-15T18:42:55.836Z,1.38
2023-04-15T18:45:24.777Z,1.65
2023-04-15T18:47:55.255Z,1.60
2023-04-15T18:50:23.509Z,2.33
2023-04-15T18:52:54.212Z,2.85
2023-04-15T18:55:23.123Z,2.08
2023-04-15T18:57:51.587Z,2.33
2023-04-15T19:00:23.036Z,2.08
2023-04-15T19:02:51.443Z,1.80
2023-04-15T19:05:22.953Z,2.38
2023-04-15T19:07:51.916Z,2.33
2023-04-15T19:10:20.394Z,1.75
2023-04-15T19:12:51.543Z,2.20
2023-04-15T19:15:19.939Z,2.17
2023-04-15T19:17:48.594Z,2.63
2023-04-15T19:20:17.063Z,2.80
2023-04-15T19:22:45.843Z,2.90
2023-04-15T19:25:14.785Z,2.08
2023-04-15T19:27:46.187Z,3.20
2023-04-15T19:30:14.594Z,2.90
2023-04-15T19:32:44.212Z,2.90
2023-04-15T19:35:12.434Z,2.85
2023-04-15T19:37:41.108Z,2.78
2023-04-15T19:40:12.608Z,2.58
2023-04-15T19:42:40.687Z,2.75
2023-04-15T19:45:08.997Z,2.53
2023-04-15T19:47:37.453Z,2.10
2023-04-15T19:50:07.493Z,3.15
2023-04-15T19:52:38.142Z,2.70
2023-04-15T19:55:07.673Z,2.40
2023-04-15T19:57:36.239Z,2.50
2023-04-15T20:00:04.647Z,2.47
2023-04-15T20:02:33.978Z,2.40
2023-04-15T20:05:05.654Z,2.88
2023-04-15T20:07:33.749Z,2.20
2023-04-15T20:10:08.627Z,2.17
2023-04-15T20:12:50.151Z,2.30
2023-04-15T20:15:24.262Z,2.00
2023-04-15T20:17:52.692Z,2.28
2023-04-15T20:20:21.329Z,2.58
2023-04-15T20:22:49.831Z,2.50
2023-04-15T20:25:18.269Z,3.33
2023-04-15T20:27:46.269Z,2.72
2023-04-15T20:30:14.442Z,2.67
2023-04-15T20:32:42.680Z,2.50
2023-04-15T20:35:14.535Z,2.67
2023-04-15T20:37:45.246Z,2.67
2023-04-15T20:40:14.794Z,2.63
2023-04-15T20:42:43.774Z,2.50
2023-04-15T20:45:12.006Z,2.65
2023-04-15T20:47:40.436Z,3.22
2023-04-15T20:50:09.045Z,3.17
2023-04-15T20:52:38.247Z,3.15
2023-04-15T20:55:10.842Z,3.90
2023-04-15T20:57:39.003Z,3.28
2023-04-15T21:00:09.719Z,3.55
2023-04-15T21:02:38.358Z,3.63
2023-04-15T21:05:06.862Z,2.63
2023-04-15T21:07:34.849Z,3.65
2023-04-15T21:10:02.878Z,4.13
2023-04-15T21:12:31.230Z,3.45
2023-04-15T21:14:59.590Z,4.15
2023-04-15T21:17:27.598Z,3.20
2023-04-15T21:19:55.741Z,3.40
2023-04-15T21:22:23.981Z,4.35
2023-04-15T21:24:51.976Z,3.78
2023-04-15T21:27:19.905Z,3.97
2023-04-15T21:29:48.092Z,3.47
2023-04-15T21:32:16.784Z,3.85
2023-04-15T21:34:45.032Z,3.70
2023-04-15T21:37:13.067Z,4.80
2023-04-15T21:39:41.264Z,3.58
2023-04-15T21:42:09.198Z,4.53
2023-04-15T21:44:37.036Z,5.35
2023-04-15T21:47:05.133Z,5.53
2023-04-15T21:49:33.221Z,5.45
2023-04-15T21:52:01.477Z,4.97
2023-04-15T21:54:31.043Z,5.88
2023-04-15T21:56:59.269Z,5.80
2023-04-15T21:59:27.465Z,6.50
2023-04-15T22:01:55.607Z,5.95
2023-04-15T22:04:23.956Z,5.22
2023-04-15T22:06:52.408Z,5.93
2023-04-15T22:09:20.484Z,6.57
2023-04-15T22:11:49.025Z,6.45
2023-04-15T22:14:16.910Z,5.88
2023-04-15T22:16:45.273Z,6.20
2023-04-15T22:19:13.426Z,5.97
2023-04-15T22:21:41.381Z,5.80
2023-04-15T22:24:39.177Z,5.95
2023-04-15T22:26:59.003Z,5.93
2023-04-15T22:29:27.308Z,6.07
2023-04-15T22:31:55.492Z,7.00
2023-04-15T22:34:23.469Z,6.97
2023-04-15T22:36:52.696Z,7.38
2023-04-15T22:39:21.396Z,7.32
2023-04-15T22:41:49.565Z,6.68
2023-04-15T22:44:17.631Z,6.35
2023-04-15T22:46:45.666Z,7.22
2023-04-15T22:49:13.526Z,6.95
2023-04-15T22:51:41.502Z,7.30
2023-04-15T22:54:09.560Z,6.70
2023-04-15T22:56:37.413Z,7.63
2023-04-15T22:59:05.580Z,7.30
2023-04-15T23:01:33.614Z,7.22
2023-04-15T23:04:08.803Z,7.47
2023-04-15T23:06:49.618Z,7.07
2023-04-15T23:09:17.675Z,8.23
2023-04-15T23:11:45.502Z,6.97
2023-04-15T23:14:13.404Z,8.05
2023-04-15T23:16:41.432Z,8.35
2023-04-15T23:19:09.645Z,7.25
2023-04-15T23:21:37.760Z,7.75
2023-04-15T23:24:06.083Z,8.80
2023-04-15T23:26:33.952Z,8.38
2023-04-15T23:29:02.018Z,7.70
2023-04-15T23:31:30.058Z,8.45
2023-04-15T23:33:58.081Z,8.15
2023-04-15T23:36:27.362Z,10.23
2023-04-15T23:38:55.483Z,8.07
2023-04-15T23:41:23.513Z,8.27
2023-04-15T23:43:51.721Z,8.43
2023-04-15T23:46:19.716Z,7.72
2023-04-15T23:48:49.064Z,8.00
2023-04-15T23:51:17.304Z,8.75
2023-04-15T23:53:45.533Z,8.73
2023-04-15T23:56:13.585Z,6.72
2023-04-15T23:58:41.524Z,8.30
